createdAt,value
2016-08-23T00:00:49.543Z,15.96
2016-08-23T00:01:49.597Z,16
2016-08-23T00:02:50.151Z,16.02
2016-08-23T00:03:49.605Z,16.04
2016-08-23T00:04:50.125Z,15.98
2016-08-23T00:05:49.506Z,15.95
2016-08-23T00:06:49.496Z,16.04
2016-08-23T00:07:49.501Z,16.07
2016-08-23T00:08:49.510Z,15.98
2016-08-23T00:09:49.513Z,15.95
2016-08-23T00:10:49.519Z,15.96
2016-08-23T00:11:49.591Z,16.04
2016-08-23T00:12:49.635Z,16.06
2016-08-23T00:13:49.542Z,15.95
2016-08-23T00:14:50.120Z,16.04
2016-08-23T00:15:49.565Z,16.04
2016-08-23T00:16:49.566Z,16.04
2016-08-23T00:17:49.483Z,16
2016-08-23T00:18:49.467Z,16.04
2016-08-23T00:19:49.483Z,16.08
2016-08-23T00:20:49.488Z,16.02
2016-08-23T00:21:49.497Z,16.04
2016-08-23T00:22:49.501Z,16.02
2016-08-23T00:23:50.073Z,16.02
2016-08-23T00:24:49.517Z,16.04
2016-08-23T00:25:49.493Z,16.06
2016-08-23T00:26:49.437Z,16.04
2016-08-23T00:27:49.441Z,15.91
2016-08-23T00:28:49.446Z,16.08
2016-08-23T00:29:49.555Z,15.91
2016-08-23T00:30:49.608Z,15.98
2016-08-23T00:31:49.472Z,15.99
2016-08-23T00:32:49.479Z,16.06
2016-08-23T00:33:49.486Z,16.07
2016-08-23T00:34:49.500Z,16
2016-08-23T00:35:49.496Z,15.91
2016-08-23T00:36:49.501Z,16.08
2016-08-23T00:37:49.514Z,16.08
2016-08-23T00:38:49.623Z,16.06
2016-08-23T00:39:49.424Z,16.06
2016-08-23T00:40:49.430Z,16.07
2016-08-23T00:41:49.546Z,16.02
2016-08-23T00:42:49.562Z,16.04
2016-08-23T00:43:49.461Z,15.93
2016-08-23T00:44:49.556Z,15.93
2016-08-23T00:45:49.567Z,16.04
2016-08-23T00:46:49.476Z,16.04
2016-08-23T00:47:50.203Z,16
2016-08-23T00:48:49.421Z,15.99
2016-08-23T00:49:49.502Z,16.04
2016-08-23T00:50:49.352Z,15.92
2016-08-23T00:51:49.419Z,16.06
2016-08-23T00:52:49.417Z,15.99
2016-08-23T00:53:49.426Z,16.06
2016-08-23T00:54:49.456Z,16.06
2016-08-23T00:55:49.438Z,15.98
2016-08-23T00:56:49.449Z,15.93
2016-08-23T00:57:49.452Z,16.04
2016-08-23T00:58:49.467Z,15.93
2016-08-23T00:59:49.422Z,16.06
2016-08-23T01:00:49.302Z,15.95
2016-08-23T01:01:49.289Z,16.06
2016-08-23T01:02:49.282Z,16.04
2016-08-23T01:03:49.402Z,16.06
2016-08-23T01:04:49.399Z,16.04
2016-08-23T01:05:49.404Z,15.93
2016-08-23T01:06:49.530Z,15.92
2016-08-23T01:07:49.525Z,16.02
2016-08-23T01:08:49.263Z,16.04
2016-08-23T01:09:49.257Z,15.91
2016-08-23T01:10:49.287Z,16
2016-08-23T01:11:49.383Z,16.06
2016-08-23T01:12:49.398Z,15.92
2016-08-23T01:13:49.263Z,15.93
2016-08-23T01:14:49.370Z,16.04
2016-08-23T01:15:49.245Z,16.04
2016-08-23T01:16:49.383Z,15.92
2016-08-23T01:17:49.400Z,15.99
2016-08-23T01:18:49.246Z,15.99
2016-08-23T01:19:49.231Z,16.04
2016-08-23T01:20:49.221Z,15.95
2016-08-23T01:21:49.262Z,15.99
2016-08-23T01:22:49.245Z,15.99
2016-08-23T01:23:49.341Z,15.96
2016-08-23T01:24:49.230Z,15.93
2016-08-23T01:25:49.408Z,15.92
2016-08-23T01:26:49.250Z,15.99
2016-08-23T01:27:49.235Z,15.99
2016-08-23T01:28:49.213Z,15.99
2016-08-23T01:29:49.215Z,15.95
2016-08-23T01:30:49.221Z,16.04
2016-08-23T01:31:49.392Z,16.07
2016-08-23T01:32:49.354Z,16.02
2016-08-23T01:33:49.230Z,15.99
2016-08-23T01:34:49.248Z,15.96
2016-08-23T01:35:49.217Z,16.02
2016-08-23T01:36:49.227Z,15.99
2016-08-23T01:37:49.230Z,16.02
2016-08-23T01:38:49.206Z,15.99
2016-08-23T01:39:49.187Z,16.04
2016-08-23T01:40:49.210Z,15.95
2016-08-23T01:41:49.209Z,16.04
2016-08-23T01:42:49.210Z,15.96
2016-08-23T01:43:49.180Z,15.99
2016-08-23T01:44:49.364Z,15.93
2016-08-23T01:45:49.062Z,15.98
2016-08-23T01:46:49.106Z,15.98
2016-08-23T01:47:49.166Z,15.95
2016-08-23T01:48:49.177Z,15.95
2016-08-23T01:49:49.758Z,15.92
2016-08-23T01:50:49.057Z,15.95
2016-08-23T01:51:49.175Z,15.86
2016-08-23T01:52:49.191Z,15.93
2016-08-23T01:53:49.162Z,15.93
2016-08-23T01:54:49.042Z,15.84
2016-08-23T01:55:49.035Z,15.83
2016-08-23T01:56:49.029Z,15.84
2016-08-23T01:57:49.163Z,15.83
2016-08-23T01:58:49.027Z,15.86
2016-08-23T01:59:49.013Z,15.88
2016-08-23T02:00:49.026Z,15.86
2016-08-23T02:01:49.018Z,15.88
2016-08-23T02:02:49.022Z,15.88
2016-08-23T02:03:49.017Z,15.83
2016-08-23T02:04:50.477Z,15.88
2016-08-23T02:05:48.988Z,15.8
2016-08-23T02:06:49.013Z,15.89
2016-08-23T02:07:48.990Z,15.78
2016-08-23T02:08:48.998Z,15.86
2016-08-23T02:09:49.003Z,15.89
2016-08-23T02:10:48.989Z,15.93
2016-08-23T02:11:48.996Z,15.89
2016-08-23T02:12:49.688Z,15.81
2016-08-23T02:13:48.982Z,15.84
2016-08-23T02:14:48.982Z,15.88
2016-08-23T02:15:48.967Z,15.84
2016-08-23T02:16:49.317Z,15.86
2016-08-23T02:17:48.961Z,15.84
2016-08-23T02:18:48.953Z,15.95
2016-08-23T02:19:48.969Z,15.84
2016-08-23T02:20:48.985Z,15.92
2016-08-23T02:21:48.966Z,15.93
2016-08-23T02:22:48.962Z,15.91
2016-08-23T02:23:48.935Z,15.93
2016-08-23T02:24:48.969Z,15.99
2016-08-23T02:25:48.934Z,15.89
2016-08-23T02:26:48.953Z,15.95
2016-08-23T02:27:48.941Z,15.96
2016-08-23T02:28:48.924Z,15.95
2016-08-23T02:29:48.951Z,15.91
2016-08-23T02:30:48.911Z,15.95
2016-08-23T02:31:48.905Z,15.83
2016-08-23T02:32:48.915Z,15.93
2016-08-23T02:33:48.915Z,15.89
2016-08-23T02:34:48.900Z,15.88
2016-08-23T02:35:48.895Z,15.91
2016-08-23T02:36:48.900Z,15.88
2016-08-23T02:37:48.914Z,15.8
2016-08-23T02:38:48.895Z,15.95
2016-08-23T02:39:48.875Z,15.91
2016-08-23T02:40:48.884Z,15.95
2016-08-23T02:41:48.896Z,15.81
2016-08-23T02:42:48.882Z,15.88
2016-08-23T02:43:48.890Z,15.84
2016-08-23T02:44:48.896Z,15.89
2016-08-23T02:45:48.868Z,15.89
2016-08-23T02:46:48.871Z,15.81
2016-08-23T02:47:48.872Z,15.83
2016-08-23T02:48:48.859Z,15.88
2016-08-23T02:49:48.850Z,15.78
2016-08-23T02:50:48.858Z,15.93
2016-08-23T02:51:48.856Z,15.88
2016-08-23T02:52:48.885Z,15.88
2016-08-23T02:53:48.857Z,15.83
2016-08-23T02:54:48.834Z,15.91
2016-08-23T02:55:48.830Z,15.83
2016-08-23T02:56:48.820Z,15.88
2016-08-23T02:57:48.888Z,15.84
2016-08-23T02:58:48.858Z,15.81
2016-08-23T02:59:48.839Z,15.88
2016-08-23T03:00:49.590Z,15.84
2016-08-23T03:01:48.817Z,15.88
2016-08-23T03:02:48.839Z,15.89
2016-08-23T03:03:49.095Z,15.88
2016-08-23T03:04:48.843Z,15.88
2016-08-23T03:05:48.788Z,15.89
2016-08-23T03:06:48.798Z,15.88
2016-08-23T03:07:48.864Z,15.89
2016-08-23T03:08:48.818Z,15.92
2016-08-23T03:09:48.828Z,15.91
2016-08-23T03:10:48.808Z,15.91
2016-08-23T03:11:48.785Z,15.89
2016-08-23T03:12:48.793Z,15.86
2016-08-23T03:13:48.814Z,15.78
2016-08-23T03:14:48.780Z,15.89
2016-08-23T03:15:48.783Z,15.83
2016-08-23T03:16:48.762Z,15.92
2016-08-23T03:17:48.763Z,15.88
2016-08-23T03:18:48.786Z,15.84
2016-08-23T03:19:48.751Z,15.89
2016-08-23T03:20:48.754Z,15.81
2016-08-23T03:21:48.761Z,15.89
2016-08-23T03:22:48.748Z,15.83
2016-08-23T03:23:48.826Z,15.88
2016-08-23T03:24:48.730Z,15.83
2016-08-23T03:25:48.747Z,15.84
2016-08-23T03:26:48.730Z,15.89
2016-08-23T03:27:48.725Z,15.89
2016-08-23T03:28:49.538Z,15.88
2016-08-23T03:29:48.713Z,15.84
2016-08-23T03:30:48.751Z,15.86
2016-08-23T03:31:48.752Z,15.89
2016-08-23T03:32:48.705Z,15.83
2016-08-23T03:33:48.701Z,15.89
2016-08-23T03:34:48.698Z,15.91
2016-08-23T03:35:48.697Z,15.89
2016-08-23T03:36:48.691Z,15.84
2016-08-23T03:37:48.710Z,15.83
2016-08-23T03:38:48.712Z,15.81
2016-08-23T03:39:48.729Z,15.89
2016-08-23T03:40:48.788Z,15.84
2016-08-23T03:41:48.707Z,15.88
2016-08-23T03:42:48.699Z,15.92
2016-08-23T03:43:48.673Z,15.89
2016-08-23T03:44:48.657Z,15.91
2016-08-23T03:45:48.680Z,15.83
2016-08-23T03:46:48.658Z,15.86
2016-08-23T03:47:48.661Z,15.86
2016-08-23T03:48:48.880Z,15.88
2016-08-23T03:49:48.656Z,15.88
2016-08-23T03:50:50.271Z,15.88
2016-08-23T03:51:48.632Z,15.83
2016-08-23T03:52:48.636Z,15.89
2016-08-23T03:53:48.644Z,15.84
2016-08-23T03:54:48.619Z,15.84
2016-08-23T03:55:48.617Z,15.83
2016-08-23T03:56:48.640Z,15.91
2016-08-23T03:57:48.614Z,15.81
2016-08-23T03:58:48.658Z,15.8
2016-08-23T03:59:48.637Z,15.86
2016-08-23T04:00:48.640Z,15.91
2016-08-23T04:01:48.618Z,15.89
2016-08-23T04:02:48.600Z,15.75
2016-08-23T04:03:48.603Z,15.77
2016-08-23T04:04:48.606Z,15.77
2016-08-23T04:05:48.682Z,15.8
2016-08-23T04:06:49.450Z,15.8
2016-08-23T04:07:48.595Z,15.73
2016-08-23T04:08:48.578Z,15.8
2016-08-23T04:09:48.607Z,15.83
2016-08-23T04:10:48.586Z,15.75
2016-08-23T04:11:48.623Z,15.89
2016-08-23T04:12:48.579Z,15.75
2016-08-23T04:13:48.569Z,15.92
2016-08-23T04:14:48.572Z,15.91
2016-08-23T04:15:48.564Z,15.91
2016-08-23T04:16:48.598Z,15.86
2016-08-23T04:17:48.573Z,15.86
2016-08-23T04:18:48.569Z,15.91
2016-08-23T04:19:49.436Z,15.84
2016-08-23T04:20:48.571Z,15.88
2016-08-23T04:21:48.548Z,15.91
2016-08-23T04:22:48.534Z,15.91
2016-08-23T04:23:48.554Z,15.88
2016-08-23T04:24:48.544Z,15.93
2016-08-23T04:25:48.535Z,15.93
2016-08-23T04:26:48.520Z,15.86
2016-08-23T04:27:48.527Z,15.89
2016-08-23T04:28:48.576Z,15.95
2016-08-23T04:29:48.538Z,15.95
2016-08-23T04:30:48.496Z,15.93
2016-08-23T04:31:48.504Z,15.96
2016-08-23T04:32:49.287Z,16
2016-08-23T04:33:48.505Z,16
2016-08-23T04:34:48.496Z,16
2016-08-23T04:35:48.495Z,15.96
2016-08-23T04:36:48.508Z,15.96
2016-08-23T04:37:48.497Z,15.99
2016-08-23T04:38:48.469Z,16
2016-08-23T04:39:48.469Z,16.04
2016-08-23T04:40:48.483Z,16.02
2016-08-23T04:41:49.407Z,16.02
2016-08-23T04:42:48.495Z,16.02
2016-08-23T04:43:48.469Z,16.04
2016-08-23T04:44:48.475Z,16.1
2016-08-23T04:45:48.483Z,16.18
2016-08-23T04:46:48.462Z,16.1
2016-08-23T04:47:48.460Z,16.16
2016-08-23T04:48:48.442Z,16.14
2016-08-23T04:49:48.450Z,16.13
2016-08-23T04:50:48.457Z,16.17
2016-08-23T04:51:48.452Z,16.21
2016-08-23T04:52:48.428Z,16.22
2016-08-23T04:53:48.430Z,16.25
2016-08-23T04:54:48.448Z,16.27
2016-08-23T04:55:48.442Z,16.16
2016-08-23T04:56:48.422Z,16.16
2016-08-23T04:57:48.408Z,16.13
2016-08-23T04:58:48.406Z,16.27
2016-08-23T04:59:48.623Z,16.29
2016-08-23T05:00:48.396Z,16.1
2016-08-23T05:01:48.402Z,16.27
2016-08-23T05:02:48.427Z,16.27
2016-08-23T05:03:48.410Z,16.18
2016-08-23T05:04:48.396Z,16.29
2016-08-23T05:05:48.400Z,16.18
2016-08-23T05:06:48.387Z,16.3
2016-08-23T05:07:48.382Z,16.32
2016-08-23T05:08:48.450Z,16.3
2016-08-23T05:09:48.394Z,16.36
2016-08-23T05:10:48.364Z,16.33
2016-08-23T05:11:48.366Z,16.29
2016-08-23T05:12:48.384Z,16.32
2016-08-23T05:13:48.374Z,16.39
2016-08-23T05:14:48.467Z,16.34
2016-08-23T05:15:48.365Z,16.36
2016-08-23T05:16:48.402Z,16.4
2016-08-23T05:17:48.363Z,16.39
2016-08-23T05:18:48.340Z,16.4
2016-08-23T05:19:48.351Z,16.49
2016-08-23T05:20:48.364Z,16.55
2016-08-23T05:21:48.328Z,16.4
2016-08-23T05:22:48.338Z,16.44
2016-08-23T05:23:49.356Z,16.45
2016-08-23T05:24:48.325Z,16.54
2016-08-23T05:25:48.339Z,16.54
2016-08-23T05:26:48.343Z,16.57
2016-08-23T05:27:48.336Z,16.58
2016-08-23T05:28:48.367Z,16.63
2016-08-23T05:29:48.327Z,16.69
2016-08-23T05:30:48.311Z,16.69
2016-08-23T05:31:48.359Z,16.72
2016-08-23T05:32:49.224Z,16.72
2016-08-23T05:33:48.322Z,16.77
2016-08-23T05:34:48.346Z,16.8
2016-08-23T05:35:48.318Z,16.84
2016-08-23T05:36:48.293Z,16.87
2016-08-23T05:37:48.311Z,16.95
2016-08-23T05:38:48.365Z,16.85
2016-08-23T05:39:48.307Z,16.95
2016-08-23T05:40:48.274Z,16.91
2016-08-23T05:41:48.271Z,16.91
2016-08-23T05:42:48.271Z,17.05
2016-08-23T05:43:48.265Z,17.09
2016-08-23T05:44:48.294Z,16.92
2016-08-23T05:45:48.263Z,17
2016-08-23T05:46:48.262Z,17.03
2016-08-23T05:47:48.260Z,17.03
2016-08-23T05:48:48.248Z,17.15
2016-08-23T05:49:48.269Z,17.18
2016-08-23T05:50:48.248Z,17.18
2016-08-23T05:51:48.247Z,17.09
2016-08-23T05:52:48.253Z,17.06
2016-08-23T05:53:48.262Z,17.03
2016-08-23T05:54:48.246Z,17.07
2016-08-23T05:55:48.244Z,17.09
2016-08-23T05:56:48.234Z,17.02
2016-08-23T05:57:48.257Z,16.9
2016-08-23T05:58:48.224Z,16.94
2016-08-23T05:59:48.222Z,16.87
2016-08-23T06:00:48.226Z,16.84
2016-08-23T06:01:48.226Z,16.88
2016-08-23T06:02:48.231Z,16.81
2016-08-23T06:03:48.213Z,16.77
2016-08-23T06:04:48.209Z,16.76
2016-08-23T06:05:48.215Z,16.7
2016-08-23T06:06:48.209Z,16.65
2016-08-23T06:07:48.203Z,16.66
2016-08-23T06:08:48.217Z,16.59
2016-08-23T06:09:48.206Z,16.57
2016-08-23T06:10:48.192Z,16.62
2016-08-23T06:11:48.190Z,16.59
2016-08-23T06:12:48.202Z,16.52
2016-08-23T06:13:48.212Z,16.44
2016-08-23T06:14:48.186Z,16.47
2016-08-23T06:15:48.184Z,16.48
2016-08-23T06:16:48.197Z,16.52
2016-08-23T06:17:48.194Z,16.42
2016-08-23T06:18:48.187Z,16.42
2016-08-23T06:19:48.178Z,16.51
2016-08-23T06:20:48.163Z,16.37
2016-08-23T06:21:48.156Z,16.47
2016-08-23T06:22:48.165Z,16.44
2016-08-23T06:23:48.963Z,16.4
2016-08-23T06:24:48.166Z,16.4
2016-08-23T06:25:48.156Z,16.48
2016-08-23T06:26:48.160Z,16.39
2016-08-23T06:27:48.146Z,16.48
2016-08-23T06:28:48.205Z,16.49
2016-08-23T06:29:48.141Z,16.48
2016-08-23T06:30:48.136Z,16.48
2016-08-23T06:31:48.157Z,16.48
2016-08-23T06:32:48.140Z,16.52
2016-08-23T06:33:48.114Z,16.57
2016-08-23T06:34:48.129Z,16.55
2016-08-23T06:35:48.133Z,16.62
2016-08-23T06:36:48.119Z,16.59
2016-08-23T06:37:48.121Z,16.57
2016-08-23T06:38:48.116Z,16.63
2016-08-23T06:39:48.124Z,16.66
2016-08-23T06:40:49.242Z,16.59
2016-08-23T06:41:48.144Z,16.69
2016-08-23T06:42:48.361Z,16.69
2016-08-23T06:43:48.107Z,16.7
2016-08-23T06:44:48.097Z,16.7
2016-08-23T06:45:48.092Z,16.67
2016-08-23T06:46:48.082Z,16.8
2016-08-23T06:47:48.893Z,16.85
2016-08-23T06:48:48.085Z,16.87
2016-08-23T06:49:48.073Z,16.97
2016-08-23T06:50:48.886Z,17.02
2016-08-23T06:51:48.088Z,17.05
2016-08-23T06:52:48.076Z,17.2
2016-08-23T06:53:48.085Z,17.25
2016-08-23T06:54:48.066Z,17.4
2016-08-23T06:55:48.053Z,17.49
2016-08-23T06:56:48.056Z,17.6
2016-08-23T06:57:48.064Z,17.74
2016-08-23T06:58:48.063Z,17.83
2016-08-23T06:59:48.048Z,17.98
2016-08-23T07:00:48.052Z,18.17
2016-08-23T07:01:48.050Z,18.19
2016-08-23T07:02:48.048Z,18.35
2016-08-23T07:03:48.036Z,18.51
2016-08-23T07:04:48.039Z,18.61
2016-08-23T07:05:48.035Z,18.89
2016-08-23T07:06:48.032Z,19.06
2016-08-23T07:07:48.029Z,19.3
2016-08-23T07:08:48.081Z,19.46
2016-08-23T07:09:48.034Z,19.56
2016-08-23T07:10:48.022Z,19.78
2016-08-23T07:11:48.139Z,20
2016-08-23T07:12:48.022Z,20.18
2016-08-23T07:13:48.061Z,20.37
2016-08-23T07:14:48.018Z,20.58
2016-08-23T07:15:48.023Z,20.79
2016-08-23T07:16:48.737Z,21.11
2016-08-23T07:17:48.028Z,21.19
2016-08-23T07:18:48.028Z,21.36
2016-08-23T07:19:48.017Z,21.56
2016-08-23T07:20:48.022Z,21.8
2016-08-23T07:21:48.024Z,22
2016-08-23T07:22:48.018Z,22.27
2016-08-23T07:23:48.021Z,22.51
2016-08-23T07:24:48.245Z,23
2016-08-23T07:25:48.031Z,23.22
2016-08-23T07:26:48.032Z,23.44
2016-08-23T07:27:48.748Z,23.71
2016-08-23T07:28:48.038Z,24
2016-08-23T07:29:48.015Z,23.92
2016-08-23T07:30:48.014Z,23.67
2016-08-23T07:31:48.005Z,23.59
2016-08-23T07:32:48.037Z,23.48
2016-08-23T07:33:48.020Z,23.34
2016-08-23T07:34:48.010Z,23.37
2016-08-23T07:35:48.013Z,23.37
2016-08-23T07:36:48.034Z,23.35
2016-08-23T07:37:48.038Z,23.16
2016-08-23T07:38:48.030Z,22.79
2016-08-23T07:39:48.846Z,22.63
2016-08-23T07:40:48.023Z,22.44
2016-08-23T07:41:48.011Z,22.09
2016-08-23T07:42:48.017Z,21.99
2016-08-23T07:43:48.013Z,21.77
2016-08-23T07:44:48.017Z,21.64
2016-08-23T07:45:48.026Z,21.62
2016-08-23T07:46:48.008Z,21.61
2016-08-23T07:47:48.018Z,21.64
2016-08-23T07:48:48.014Z,21.55
2016-08-23T07:49:48.009Z,21.46
2016-08-23T07:50:48.014Z,21.51
2016-08-23T07:51:48.013Z,21.52
2016-08-23T07:52:48.025Z,21.53
2016-08-23T07:53:48.017Z,21.49
2016-08-23T07:54:48.018Z,21.34
2016-08-23T07:55:48.013Z,21.31
2016-08-23T07:56:48.836Z,21.25
2016-08-23T07:57:48.052Z,21.27
2016-08-23T07:58:48.043Z,21.19
2016-08-23T07:59:48.068Z,21.19
2016-08-23T08:00:48.005Z,21.23
2016-08-23T08:01:48.017Z,21.23
2016-08-23T08:02:48.012Z,21.36
2016-08-23T08:03:48.003Z,21.22
2016-08-23T08:04:48.015Z,21.19
2016-08-23T08:05:48.013Z,21.25
2016-08-23T08:06:48.018Z,21.23
2016-08-23T08:07:48.833Z,21.19
2016-08-23T08:08:48.012Z,21.19
2016-08-23T08:09:48.000Z,21.13
2016-08-23T08:10:48.060Z,21.21
2016-08-23T08:11:48.009Z,21.25
2016-08-23T08:12:48.008Z,21.19
2016-08-23T08:13:48.011Z,21.37
2016-08-23T08:14:48.007Z,21.41
2016-08-23T08:15:48.018Z,21.33
2016-08-23T08:16:48.012Z,21.48
2016-08-23T08:17:48.011Z,21.46
2016-08-23T08:18:48.002Z,21.55
2016-08-23T08:19:48.010Z,21.68
2016-08-23T08:20:48.025Z,21.73
2016-08-23T08:21:48.069Z,21.7
2016-08-23T08:22:48.020Z,21.68
2016-08-23T08:23:48.099Z,21.74
2016-08-23T08:24:48.091Z,21.64
2016-08-23T08:25:48.011Z,21.43
2016-08-23T08:26:47.999Z,21.41
2016-08-23T08:27:48.008Z,21.25
2016-08-23T08:28:48.842Z,21.34
2016-08-23T08:29:48.015Z,21.4
2016-08-23T08:30:48.067Z,21.53
2016-08-23T08:31:49.093Z,21.52
2016-08-23T08:32:48.834Z,21.45
2016-08-23T08:33:48.069Z,21.43
2016-08-23T08:34:48.017Z,21.43
2016-08-23T08:35:48.010Z,21.36
2016-08-23T08:36:48.021Z,21.41
2016-08-23T08:37:48.021Z,21.36
2016-08-23T08:38:48.004Z,21.46
2016-08-23T08:39:48.003Z,21.62
2016-08-23T08:40:48.005Z,21.61
2016-08-23T08:41:48.007Z,21.78
2016-08-23T08:42:48.014Z,21.85
2016-08-23T08:43:48.034Z,21.7
2016-08-23T08:44:48.012Z,21.66
2016-08-23T08:45:48.006Z,21.61
2016-08-23T08:46:48.003Z,21.61
2016-08-23T08:47:48.013Z,21.7
2016-08-23T08:48:48.005Z,21.74
2016-08-23T08:49:48.006Z,21.76
2016-08-23T08:50:48.015Z,21.74
2016-08-23T08:51:48.004Z,21.8
2016-08-23T08:52:48.020Z,21.86
2016-08-23T08:53:48.018Z,21.96
2016-08-23T08:54:48.027Z,21.85
2016-08-23T08:55:48.011Z,21.8
2016-08-23T08:56:48.005Z,21.74
2016-08-23T08:57:48.018Z,21.78
2016-08-23T08:58:48.011Z,21.77
2016-08-23T08:59:48.001Z,21.67
2016-08-23T09:00:48.009Z,21.66
2016-08-23T09:01:48.023Z,21.64
2016-08-23T09:02:48.001Z,21.59
2016-08-23T09:03:48.006Z,21.68
2016-08-23T09:04:48.011Z,21.58
2016-08-23T09:05:48.013Z,21.68
2016-08-23T09:06:48.093Z,21.74
2016-08-23T09:07:48.093Z,21.78
2016-08-23T09:08:48.047Z,21.76
2016-08-23T09:09:48.007Z,21.9
2016-08-23T09:10:48.055Z,21.97
2016-08-23T09:11:48.011Z,21.94
2016-08-23T09:12:48.028Z,22.11
2016-08-23T09:13:48.010Z,22.2
2016-08-23T09:14:48.016Z,22.15
2016-08-23T09:15:48.017Z,22.14
2016-08-23T09:16:48.022Z,22.12
2016-08-23T09:17:49.341Z,21.96
2016-08-23T09:18:48.113Z,21.94
2016-08-23T09:19:48.029Z,22
2016-08-23T09:20:48.023Z,22.11
2016-08-23T09:21:48.028Z,22.09
2016-08-23T09:22:48.125Z,22.05
2016-08-23T09:23:49.100Z,21.99
2016-08-23T09:24:49.099Z,21.85
2016-08-23T09:25:48.434Z,21.74
2016-08-23T09:26:48.043Z,21.73
2016-08-23T09:27:48.031Z,21.83
2016-08-23T09:28:48.044Z,21.89
2016-08-23T09:29:49.247Z,22
2016-08-23T09:30:48.138Z,21.92
2016-08-23T09:31:48.101Z,22.04
2016-08-23T09:32:48.255Z,22.07
2016-08-23T09:33:48.029Z,22.11
2016-08-23T09:34:48.081Z,22.14
2016-08-23T09:35:48.095Z,22.12
2016-08-23T09:36:49.118Z,22.2
2016-08-23T09:37:48.035Z,22.24
2016-08-23T09:38:48.047Z,22.11
2016-08-23T09:39:48.040Z,22.16
2016-08-23T09:40:48.027Z,22.14
2016-08-23T09:41:48.040Z,22
2016-08-23T09:42:48.028Z,22.18
2016-08-23T09:43:48.034Z,22.26
2016-08-23T09:44:48.044Z,22.22
2016-08-23T09:45:49.828Z,22.22
2016-08-23T09:46:48.037Z,22.23
2016-08-23T09:47:48.033Z,22.3
2016-08-23T09:48:48.043Z,22.29
2016-08-23T09:49:48.040Z,22.42
2016-08-23T09:50:48.079Z,22.27
2016-08-23T09:51:48.037Z,22.34
2016-08-23T09:52:48.055Z,22.31
2016-08-23T09:53:48.110Z,22.33
2016-08-23T09:54:49.514Z,22.36
2016-08-23T09:56:02.912Z,22.51
2016-08-23T09:56:48.062Z,22.61
2016-08-23T09:57:48.054Z,22.69
2016-08-23T09:58:48.053Z,22.78
2016-08-23T09:59:48.048Z,22.88
2016-08-23T10:00:48.206Z,23.16
2016-08-23T10:01:48.080Z,23.32
2016-08-23T10:02:48.120Z,23.5
2016-08-23T10:03:48.147Z,23.5
2016-08-23T10:04:48.090Z,23.47
2016-08-23T10:05:48.161Z,23.38
2016-08-23T10:06:48.118Z,23.29
2016-08-23T10:07:48.099Z,23.25
2016-08-23T10:08:48.101Z,23.21
2016-08-23T10:09:48.124Z,23.1
2016-08-23T10:10:48.110Z,23.14
2016-08-23T10:11:48.065Z,23.19
2016-08-23T10:12:48.091Z,23.38
2016-08-23T10:13:49.033Z,23.38
2016-08-23T10:14:49.024Z,23.45
2016-08-23T10:15:48.108Z,23.5
2016-08-23T10:16:48.107Z,23.57
2016-08-23T10:17:48.093Z,23.62
2016-08-23T10:18:48.123Z,23.71
2016-08-23T10:19:48.052Z,23.78
2016-08-23T10:20:48.061Z,23.75
2016-08-23T10:21:48.070Z,23.7
2016-08-23T10:22:48.075Z,23.62
2016-08-23T10:23:48.084Z,23.53
2016-08-23T10:24:48.072Z,23.62
2016-08-23T10:25:48.136Z,23.66
2016-08-23T10:26:48.134Z,23.71
2016-08-23T10:27:48.092Z,23.74
2016-08-23T10:28:48.078Z,23.7
2016-08-23T10:29:48.150Z,23.47
2016-08-23T10:30:48.157Z,23.5
2016-08-23T10:31:48.118Z,23.42
2016-08-23T10:32:48.088Z,23.34
2016-08-23T10:33:48.137Z,23.37
2016-08-23T10:34:48.139Z,23.35
2016-08-23T10:35:48.128Z,23.38
2016-08-23T10:36:48.132Z,23.28
2016-08-23T10:37:48.092Z,23.26
2016-08-23T10:38:48.090Z,23.26
2016-08-23T10:39:48.128Z,23.29
2016-08-23T10:40:48.101Z,23.4
2016-08-23T10:41:48.113Z,23.4
2016-08-23T10:42:48.157Z,23.34
2016-08-23T10:43:48.613Z,23.35
2016-08-23T10:44:49.288Z,23.5
2016-08-23T10:45:48.245Z,23.64
2016-08-23T10:46:48.217Z,23.71
2016-08-23T10:47:48.145Z,23.74
2016-08-23T10:48:48.166Z,23.71
2016-08-23T10:49:48.130Z,23.74
2016-08-23T10:50:48.174Z,23.82
2016-08-23T10:51:48.098Z,23.87
2016-08-23T10:52:48.207Z,23.84
2016-08-23T10:53:48.244Z,23.78
2016-08-23T10:54:49.115Z,23.7
2016-08-23T10:55:48.168Z,23.72
2016-08-23T10:56:48.181Z,23.7
2016-08-23T10:57:48.191Z,23.63
2016-08-23T10:58:48.869Z,23.52
2016-08-23T10:59:48.353Z,23.55
2016-08-23T11:00:48.150Z,23.48
2016-08-23T11:01:48.549Z,23.55
2016-08-23T11:02:48.142Z,23.47
2016-08-23T11:03:48.140Z,23.44
2016-08-23T11:04:48.154Z,23.42
2016-08-23T11:05:48.144Z,23.41
2016-08-23T11:06:49.359Z,23.4
2016-08-23T11:07:49.267Z,23.35
2016-08-23T11:08:49.113Z,23.45
2016-08-23T11:09:48.243Z,23.41
2016-08-23T11:10:48.275Z,23.41
2016-08-23T11:11:49.169Z,23.45
2016-08-23T11:12:48.490Z,23.37
2016-08-23T11:13:49.077Z,23.38
2016-08-23T11:14:48.156Z,23.32
2016-08-23T11:15:49.171Z,23.4
2016-08-23T11:16:48.456Z,23.4
2016-08-23T11:17:48.381Z,23.42
2016-08-23T11:18:48.151Z,23.42
2016-08-23T11:19:48.149Z,23.45
2016-08-23T11:20:48.168Z,23.41
2016-08-23T11:21:48.172Z,23.52
2016-08-23T11:22:48.323Z,23.47
2016-08-23T11:23:48.189Z,23.66
2016-08-23T11:24:48.860Z,23.71
2016-08-23T11:25:48.354Z,23.87
2016-08-23T11:26:48.306Z,23.94
2016-08-23T11:27:48.681Z,23.97
2016-08-23T11:28:50.012Z,23.93
2016-08-23T11:29:48.358Z,23.9
2016-08-23T11:30:49.281Z,23.92
2016-08-23T11:31:48.223Z,23.89
2016-08-23T11:32:48.182Z,23.77
2016-08-23T11:33:48.338Z,23.71
2016-08-23T11:34:48.174Z,23.56
2016-08-23T11:35:48.173Z,23.48
2016-08-23T11:36:48.197Z,23.48
2016-08-23T11:37:48.185Z,23.44
2016-08-23T11:38:48.198Z,23.44
2016-08-23T11:39:48.212Z,23.4
2016-08-23T11:40:48.329Z,23.44
2016-08-23T11:41:48.188Z,23.42
2016-08-23T11:42:48.191Z,23.34
2016-08-23T11:43:48.241Z,23.35
2016-08-23T11:44:48.222Z,23.34
2016-08-23T11:45:49.160Z,23.44
2016-08-23T11:46:48.277Z,23.29
2016-08-23T11:47:48.210Z,23.22
2016-08-23T11:48:50.555Z,23.28
2016-08-23T11:49:49.330Z,23.38
2016-08-23T11:50:48.422Z,23.24
2016-08-23T11:51:48.332Z,23.16
2016-08-23T11:52:48.211Z,23.37
2016-08-23T11:53:48.231Z,23.35
2016-08-23T11:54:48.215Z,23.35
2016-08-23T11:55:48.642Z,23.35
2016-08-23T11:56:49.000Z,23.44
2016-08-23T11:57:48.228Z,23.55
2016-08-23T11:58:49.172Z,23.52
2016-08-23T11:59:48.262Z,23.48
2016-08-23T12:00:48.255Z,23.53
2016-08-23T12:01:48.242Z,23.52
2016-08-23T12:02:48.243Z,23.48
2016-08-23T12:03:48.246Z,23.45
2016-08-23T12:04:48.231Z,23.48
2016-08-23T12:05:48.243Z,23.45
2016-08-23T12:06:48.243Z,23.44
2016-08-23T12:07:48.231Z,23.37
2016-08-23T12:08:48.237Z,23.41
2016-08-23T12:09:48.478Z,23.44
2016-08-23T12:10:49.395Z,23.5
2016-08-23T12:11:48.385Z,23.55
2016-08-23T12:12:48.297Z,23.48
2016-08-23T12:13:48.252Z,23.52
2016-08-23T12:14:48.287Z,23.55
2016-08-23T12:15:48.294Z,23.38
2016-08-23T12:16:48.304Z,23.48
2016-08-23T12:17:48.277Z,23.53
2016-08-23T12:18:48.244Z,23.5
2016-08-23T12:19:48.285Z,23.5
2016-08-23T12:20:48.290Z,23.41
2016-08-23T12:21:48.259Z,23.44
2016-08-23T12:22:48.261Z,23.47
2016-08-23T12:23:48.281Z,23.34
2016-08-23T12:24:48.269Z,23.37
2016-08-23T12:25:48.269Z,23.28
2016-08-23T12:26:48.283Z,23.26
2016-08-23T12:27:48.310Z,23.26
2016-08-23T12:28:48.281Z,23.21
2016-08-23T12:29:48.318Z,23.29
2016-08-23T12:30:48.267Z,23.25
2016-08-23T12:31:48.271Z,23.18
2016-08-23T12:32:48.289Z,23.26
2016-08-23T12:33:49.130Z,23.28
2016-08-23T12:34:48.459Z,23.26
2016-08-23T12:35:48.302Z,23.28
2016-08-23T12:36:48.304Z,23.35
2016-08-23T12:37:48.589Z,23.35
2016-08-23T12:38:48.615Z,23.34
2016-08-23T12:39:49.934Z,23.41
2016-08-23T12:40:48.291Z,23.41
2016-08-23T12:41:48.302Z,23.45
2016-08-23T12:42:48.303Z,23.41
2016-08-23T12:43:48.315Z,23.41
2016-08-23T12:44:49.011Z,23.35
2016-08-23T12:45:48.312Z,23.42
2016-08-23T12:46:48.333Z,23.41
2016-08-23T12:47:48.326Z,23.45
2016-08-23T12:48:48.319Z,23.48
2016-08-23T12:49:48.303Z,23.42
2016-08-23T12:50:48.317Z,23.52
2016-08-23T12:51:48.307Z,23.48
2016-08-23T12:52:48.385Z,23.48
2016-08-23T12:53:48.323Z,23.41
2016-08-23T12:54:48.623Z,23.42
2016-08-23T12:55:48.327Z,23.44
2016-08-23T12:56:48.343Z,23.52